createdAt,value
2022-09-20T00:02:06.679Z,13.85
2022-09-20T00:07:08.509Z,12.25
2022-09-20T00:12:10.176Z,10.18
2022-09-20T00:17:11.792Z,11.02
2022-09-20T00:22:13.416Z,11.00
2022-09-20T00:27:15.027Z,14.13
2022-09-20T00:32:16.725Z,9.25
2022-09-20T00:37:18.363Z,10.07
2022-09-20T00:42:19.969Z,13.50
2022-09-20T00:47:39.998Z,8.70
2022-09-20T00:52:45.468Z,11.90
2022-09-20T00:57:48.181Z,14.25
2022-09-20T01:02:56.020Z,13.68
2022-09-20T01:07:57.999Z,11.65
2022-09-20T01:12:59.623Z,11.52
2022-09-20T01:18:02.871Z,12.27
2022-09-20T01:23:40.129Z,7.45
2022-09-20T01:28:45.368Z,15.57
2022-09-20T01:34:00.697Z,11.15
2022-09-20T01:39:44.194Z,12.52
2022-09-20T01:45:10.795Z,12.15
2022-09-20T01:50:39.735Z,11.73
2022-09-20T01:55:41.307Z,14.43
2022-09-20T02:01:04.187Z,14.90
2022-09-20T02:06:23.639Z,12.15
2022-09-20T02:11:54.386Z,14.60
2022-09-20T02:17:00.643Z,12.70
2022-09-20T02:22:20.139Z,15.95
2022-09-20T02:27:41.624Z,12.82
2022-09-20T02:33:01.208Z,11.80
2022-09-20T02:38:21.248Z,12.35
2022-09-20T02:43:59.996Z,15.75
2022-09-20T02:49:13.031Z,15.00
2022-09-20T02:54:24.686Z,17.83
2022-09-20T02:59:45.565Z,12.75
2022-09-20T03:05:05.344Z,17.05
2022-09-20T03:10:25.216Z,14.35
2022-09-20T03:15:37.303Z,15.55
2022-09-20T03:21:30.334Z,15.77
2022-09-20T03:26:55.160Z,17.17
2022-09-20T03:32:19.951Z,18.00
2022-09-20T03:37:21.499Z,15.52
2022-09-20T03:42:30.424Z,23.05
2022-09-20T03:47:41.337Z,20.70
2022-09-20T03:58:06.866Z,21.70
2022-09-20T04:03:42.923Z,11.25
2022-09-20T04:09:25.032Z,10.93
2022-09-20T04:20:14.034Z,14.10
2022-09-20T04:25:23.785Z,16.10
2022-09-20T04:30:30.338Z,10.88
2022-09-20T04:36:12.199Z,11.40
2022-09-20T04:41:39.409Z,10.82
2022-09-20T04:46:43.626Z,18.58
2022-09-20T04:52:19.652Z,17.48
2022-09-20T04:57:49.054Z,12.65
2022-09-20T05:03:05.993Z,17.05
2022-09-20T05:08:26.439Z,20.67
2022-09-20T05:13:58.958Z,21.17
2022-09-20T05:19:13.611Z,18.42
2022-09-20T05:24:24.511Z,22.85
2022-09-20T05:35:04.852Z,15.63
2022-09-20T05:40:31.108Z,22.63
2022-09-20T05:45:57.510Z,19.85
2022-09-20T05:51:15.827Z,18.27
2022-09-20T05:56:29.461Z,20.73
2022-09-20T06:01:42.076Z,20.23
2022-09-20T06:07:02.100Z,27.05
2022-09-20T06:12:35.458Z,22.88
2022-09-20T06:17:59.756Z,22.05
2022-09-20T06:23:05.526Z,26.75
2022-09-20T06:28:15.906Z,22.02
2022-09-20T06:33:20.671Z,22.35
2022-09-20T06:38:43.719Z,21.52
2022-09-20T06:43:45.668Z,20.98
2022-09-20T06:48:47.371Z,20.73
2022-09-20T06:53:49.647Z,20.38
2022-09-20T06:58:52.795Z,15.18
2022-09-20T07:03:54.408Z,19.15
2022-09-20T07:08:56.091Z,16.48
2022-09-20T07:14:00.493Z,18.63
2022-09-20T07:19:03.222Z,18.25
2022-09-20T07:24:05.041Z,18.02
2022-09-20T07:29:07.896Z,16.02
2022-09-20T07:34:11.141Z,16.60
2022-09-20T07:39:12.929Z,19.58
2022-09-20T07:44:28.033Z,11.35
2022-09-20T07:49:30.404Z,14.35
2022-09-20T07:54:32.069Z,14.95
2022-09-20T07:59:33.752Z,14.57
2022-09-20T08:04:35.413Z,12.85
2022-09-20T08:09:37.059Z,16.90
2022-09-20T08:14:38.701Z,11.57
2022-09-20T08:19:40.497Z,18.83
2022-09-20T08:24:42.569Z,13.35
2022-09-20T08:29:44.194Z,16.80
2022-09-20T08:34:49.258Z,12.10
2022-09-20T08:39:58.948Z,9.35
2022-09-20T08:45:03.644Z,12.73
2022-09-20T08:50:10.127Z,12.75
2022-09-20T08:55:23.105Z,10.65
2022-09-20T09:00:33.804Z,11.48
2022-09-20T09:05:43.141Z,16.00
2022-09-20T09:10:48.021Z,11.27
2022-09-20T09:15:59.018Z,8.43
2022-09-20T09:21:04.300Z,10.35
2022-09-20T09:26:06.066Z,9.43
2022-09-20T09:31:23.184Z,8.05
2022-09-20T09:36:26.207Z,9.73
2022-09-20T09:41:35.410Z,10.48
2022-09-20T09:46:40.250Z,11.13
2022-09-20T09:52:03.183Z,11.60
2022-09-20T09:57:20.831Z,12.15
2022-09-20T10:02:23.553Z,11.18
2022-09-20T10:07:46.977Z,12.40
2022-09-20T10:13:10.937Z,9.55
2022-09-20T10:18:44.109Z,10.82
2022-09-20T10:24:23.438Z,11.32
2022-09-20T10:29:26.239Z,11.80
2022-09-20T10:34:52.340Z,16.05
2022-09-20T10:40:20.514Z,13.13
2022-09-20T10:46:08.424Z,10.55
2022-09-20T10:51:06.585Z,10.73
2022-09-20T10:56:56.323Z,10.85
2022-09-20T11:01:58.141Z,13.40
2022-09-20T11:07:21.936Z,8.85
2022-09-20T11:12:50.116Z,10.95
2022-09-20T11:18:09.738Z,9.95
2022-09-20T11:23:16.691Z,10.52
2022-09-20T11:28:36.216Z,9.57
2022-09-20T11:33:52.481Z,10.10
2022-09-20T11:39:48.481Z,9.60
2022-09-20T11:44:51.147Z,7.35
2022-09-20T11:49:52.715Z,11.10
2022-09-20T11:55:08.463Z,6.47
2022-09-20T12:00:10.514Z,10.98
2022-09-20T12:05:38.169Z,6.80
2022-09-20T12:10:40.631Z,6.85
2022-09-20T12:15:42.700Z,5.35
2022-09-20T12:20:45.104Z,5.93
2022-09-20T12:26:18.901Z,6.47
2022-09-20T12:31:29.154Z,2.97
2022-09-20T12:41:46.597Z,5.07
2022-09-20T12:47:12.586Z,4.10
2022-09-20T12:52:50.988Z,4.20
2022-09-20T12:58:02.299Z,6.63
2022-09-20T13:03:21.733Z,4.70
2022-09-20T13:08:30.142Z,6.00
2022-09-20T13:13:35.905Z,5.93
2022-09-20T13:18:37.934Z,6.10
2022-09-20T13:23:49.444Z,5.97
2022-09-20T13:28:56.110Z,4.32
2022-09-20T13:34:21.442Z,4.50
2022-09-20T13:39:27.845Z,4.13
2022-09-20T13:44:34.468Z,5.03
2022-09-20T13:49:43.155Z,5.32
2022-09-20T13:54:44.789Z,5.95
2022-09-20T13:59:47.144Z,4.80
2022-09-20T14:04:50.549Z,8.43
2022-09-20T14:09:53.074Z,4.57
2022-09-20T14:14:55.343Z,6.72
2022-09-20T14:19:58.375Z,5.03
2022-09-20T14:25:22.087Z,5.57
2022-09-20T14:30:32.735Z,6.55
2022-09-20T14:35:34.551Z,5.03
2022-09-20T14:40:47.659Z,5.47
2022-09-20T14:45:58.772Z,6.45
2022-09-20T14:51:22.672Z,4.75
2022-09-20T14:56:34.712Z,6.30
2022-09-20T15:01:41.140Z,6.85
2022-09-20T15:06:43.065Z,5.55
2022-09-20T15:11:45.001Z,5.65
2022-09-20T15:16:46.781Z,4.90
2022-09-20T15:21:48.590Z,5.45
2022-09-20T15:26:54.353Z,7.38
2022-09-20T15:32:00.224Z,6.05
2022-09-20T15:37:02.033Z,4.82
2022-09-20T15:42:13.945Z,7.53
2022-09-20T15:47:22.019Z,8.23
2022-09-20T15:52:29.107Z,10.98
2022-09-20T15:57:35.160Z,10.00
2022-09-20T16:02:37.584Z,16.73
2022-09-20T16:07:40.346Z,6.15
2022-09-20T16:12:42.117Z,6.72
2022-09-20T16:18:02.354Z,6.55
2022-09-20T16:23:04.448Z,9.13
2022-09-20T16:28:06.129Z,6.03
2022-09-20T16:33:11.882Z,6.45
2022-09-20T16:38:14.162Z,5.13
2022-09-20T16:43:25.877Z,6.90
2022-09-20T16:48:31.349Z,7.10
2022-09-20T16:53:33.033Z,7.32
2022-09-20T16:58:36.529Z,6.95
2022-09-20T17:03:40.860Z,5.45
2022-09-20T17:08:44.928Z,7.07
2022-09-20T17:13:48.035Z,6.85
2022-09-20T17:19:40.216Z,7.57
2022-09-20T17:24:41.882Z,7.63
2022-09-20T17:29:45.551Z,8.25
2022-09-20T17:34:47.228Z,6.97
2022-09-20T17:39:50.455Z,5.45
2022-09-20T17:44:52.346Z,6.88
2022-09-20T17:49:54.991Z,5.95
2022-09-20T17:54:57.064Z,5.70
2022-09-20T17:59:59.256Z,6.05
2022-09-20T18:05:02.011Z,9.95
2022-09-20T18:10:04.989Z,12.10
2022-09-20T18:15:07.290Z,10.30
2022-09-20T18:20:09.847Z,7.10
2022-09-20T18:25:11.468Z,6.07
2022-09-20T18:30:13.170Z,8.90
2022-09-20T18:35:14.832Z,8.07
2022-09-20T18:40:16.585Z,7.60
2022-09-20T18:45:19.425Z,9.07
2022-09-20T18:50:21.528Z,9.23
2022-09-20T18:55:24.928Z,9.13
2022-09-20T19:00:27.008Z,9.02
2022-09-20T19:05:28.714Z,9.15
2022-09-20T19:10:54.454Z,8.80
2022-09-20T19:16:18.723Z,8.57
2022-09-20T19:21:20.761Z,11.40
2022-09-20T19:26:25.934Z,8.63
2022-09-20T19:31:33.409Z,9.05
2022-09-20T19:36:49.272Z,9.88
2022-09-20T19:41:58.301Z,9.00
2022-09-20T19:47:06.255Z,8.98
2022-09-20T19:52:12.136Z,8.93
2022-09-20T19:57:24.068Z,9.07
2022-09-20T20:02:25.855Z,20.42
2022-09-20T20:07:45.654Z,17.80
2022-09-20T20:13:00.687Z,18.27
2022-09-20T20:18:21.653Z,11.73
2022-09-20T20:23:34.651Z,12.02
2022-09-20T20:28:37.772Z,12.43
2022-09-20T20:33:39.774Z,12.27
2022-09-20T20:45:06.027Z,11.05
2022-09-20T20:50:08.182Z,8.38
2022-09-20T20:55:10.790Z,9.30
2022-09-20T21:00:13.032Z,11.05
2022-09-20T21:05:15.509Z,9.20
2022-09-20T21:10:17.115Z,11.85
2022-09-20T21:15:18.826Z,10.82
2022-09-20T21:20:21.669Z,7.68
2022-09-20T21:25:23.294Z,12.63
2022-09-20T21:30:24.949Z,8.98
2022-09-20T21:35:26.625Z,9.68
2022-09-20T21:40:28.359Z,7.50
2022-09-20T21:45:30.101Z,13.40
2022-09-20T21:50:31.716Z,8.00
2022-09-20T21:55:33.530Z,9.70
2022-09-20T22:00:35.885Z,10.20
2022-09-20T22:05:37.573Z,12.10
2022-09-20T22:10:39.174Z,19.98
2022-09-20T22:15:40.807Z,109.30
2022-09-20T22:20:42.433Z,25.02
2022-09-20T22:25:44.081Z,54.40
2022-09-20T22:30:45.719Z,40.47
2022-09-20T22:35:47.350Z,66.32
2022-09-20T22:40:53.957Z,45.45
2022-09-20T22:46:05.139Z,39.83
2022-09-20T22:51:09.495Z,50.55
2022-09-20T22:56:15.273Z,61.13
2022-09-20T23:01:25.992Z,36.42
2022-09-20T23:06:30.970Z,22.23
2022-09-20T23:11:32.792Z,47.15
2022-09-20T23:16:36.702Z,284.88
2022-09-20T23:21:39.502Z,467.33
2022-09-20T23:26:42.392Z,98.38
2022-09-20T23:31:47.229Z,77.25
2022-09-20T23:36:49.036Z,58.35
2022-09-20T23:41:51.439Z,124.28
2022-09-20T23:46:53.219Z,171.93
2022-09-20T23:51:55.048Z,199.45
2022-09-20T23:56:56.648Z,273.85
